Time;durP1;ratioP1;P1;durP2;ratioP2;P2;SDS_P1;SDS_P2;PMS_P1;PMS_P2;Temp;Humidity;BMP_temperature;BMP_pressure;BME280_temperature;BME280_humidity;BME280_pressure;Samples;Min_cycle;Max_cycle;Signal;HPM_P1;HPM_P2
2021/03/04 00:00:48;;;;;;;3.75;2.83;;;22.50;45.20;;;;;;5060791;28;20069;-83
2021/03/04 00:03:14;;;;;;;3.55;3.08;;;22.40;45.20;;;;;;5050574;28;20698;-83
2021/03/04 00:05:40;;;;;;;5.22;2.67;;;22.40;45.20;;;;;;5047529;28;20020;-83
2021/03/04 00:08:07;;;;;;;4.75;2.83;;;22.40;45.10;;;;;;5064436;28;20075;-82
2021/03/04 00:10:33;;;;;;;3.58;3.10;;;22.40;45.10;;;;;;5055718;28;20587;-81
2021/03/04 00:12:59;;;;;;;3.88;3.22;;;22.30;45.10;;;;;;5040868;28;20032;-82
2021/03/04 00:15:28;;;;;;;3.83;3.28;;;22.30;45.00;;;;;;5055833;28;20024;-81
2021/03/04 00:17:53;;;;;;;3.78;2.70;;;22.40;45.20;;;;;;5059230;28;20078;-81
2021/03/04 00:20:27;;;;;;;3.97;3.22;;;22.40;45.10;;;;;;5055694;28;20025;-82
2021/03/04 00:22:52;;;;;;;3.60;3.25;;;22.40;45.10;;;;;;5050175;28;20021;-82
2021/03/04 00:25:20;;;;;;;4.30;3.50;;;22.30;45.00;;;;;;5062281;28;20036;-82
2021/03/04 00:27:46;;;;;;;4.10;3.05;;;22.30;45.10;;;;;;5033713;28;20427;-82
2021/03/04 00:30:14;;;;;;;3.85;3.33;;;22.40;45.10;;;;;;5056273;28;20048;-82
2021/03/04 00:32:40;;;;;;;3.92;3.30;;;22.30;45.00;;;;;;5061699;28;20024;-82
2021/03/04 00:35:07;;;;;;;4.68;3.25;;;22.30;45.00;;;;;;5067691;28;20036;-82
2021/03/04 00:37:32;;;;;;;4.88;3.58;;;22.30;45.00;;;;;;5048920;28;20029;-82
2021/03/04 00:39:58;;;;;;;4.13;3.42;;;22.30;45.00;;;;;;5039070;28;20600;-82
2021/03/04 00:42:24;;;;;;;4.18;3.60;;;22.30;45.00;;;;;;5042314;28;20066;-82
2021/03/04 00:44:49;;;;;;;4.50;3.45;;;22.30;45.00;;;;;;5057171;28;20056;-82
2021/03/04 00:47:15;;;;;;;3.20;2.90;;;22.30;45.00;;;;;;5059886;28;20456;-81
2021/03/04 00:49:41;;;;;;;4.93;3.08;;;22.30;45.00;;;;;;5057953;28;20017;-82
2021/03/04 00:52:07;;;;;;;5.78;3.50;;;22.30;44.90;;;;;;5061042;28;20028;-82
2021/03/04 00:54:32;;;;;;;3.63;3.33;;;22.30;45.00;;;;;;5068747;28;20040;-82
2021/03/04 00:56:58;;;;;;;4.53;3.10;;;22.20;45.00;;;;;;5070413;28;20054;-82
2021/03/04 00:59:24;;;;;;;3.83;3.30;;;22.20;45.00;;;;;;5068842;28;20075;-82
2021/03/04 01:01:49;;;;;;;3.55;3.25;;;22.20;44.90;;;;;;5062130;28;20078;-82
2021/03/04 01:04:15;;;;;;;4.22;3.63;;;22.20;45.00;;;;;;5057860;28;20380;-82
2021/03/04 01:06:41;;;;;;;4.40;3.55;;;22.20;45.00;;;;;;5064178;28;20024;-82
2021/03/04 01:09:06;;;;;;;6.00;3.60;;;22.20;44.90;;;;;;5050210;28;20663;-82
2021/03/04 01:11:33;;;;;;;4.40;3.58;;;22.20;44.90;;;;;;5054826;28;20519;-81
2021/03/04 01:13:59;;;;;;;4.13;3.80;;;22.20;44.90;;;;;;5051488;28;20478;-82
2021/03/04 01:16:24;;;;;;;5.32;3.70;;;22.10;44.80;;;;;;5054569;28;20029;-82
2021/03/04 01:18:52;;;;;;;4.93;3.50;;;22.10;44.90;;;;;;5060699;28;20110;-82
2021/03/04 01:21:18;;;;;;;3.67;3.25;;;22.10;44.80;;;;;;5058350;28;20082;-82
2021/03/04 01:23:43;;;;;;;5.85;3.80;;;22.10;44.80;;;;;;5056463;28;20028;-82
2021/03/04 01:26:09;;;;;;;6.38;3.95;;;22.10;44.70;;;;;;5062622;28;20025;-81
2021/03/04 01:28:34;;;;;;;4.15;3.75;;;22.10;44.70;;;;;;5061992;28;20036;-82
2021/03/04 01:31:00;;;;;;;4.47;3.42;;;22.10;44.80;;;;;;5063102;28;20021;-81
2021/03/04 01:33:26;;;;;;;4.80;3.97;;;22.10;44.70;;;;;;5058165;28;20131;-81
2021/03/04 01:35:51;;;;;;;4.53;3.92;;;22.10;44.80;;;;;;5048298;28;20025;-81
2021/03/04 01:38:17;;;;;;;4.10;3.70;;;22.10;44.80;;;;;;5053203;28;20041;-82
2021/03/04 01:40:43;;;;;;;6.05;4.05;;;22.00;44.70;;;;;;5057689;28;20453;-81
2021/03/04 01:43:08;;;;;;;5.50;3.35;;;22.00;44.70;;;;;;5057604;28;20037;-82
2021/03/04 01:45:34;;;;;;;4.43;3.15;;;22.00;44.70;;;;;;5058841;28;20443;-82
2021/03/04 01:48:01;;;;;;;3.30;3.00;;;22.00;44.70;;;;;;5052743;28;20040;-82
2021/03/04 01:50:27;;;;;;;4.35;2.92;;;22.00;44.70;;;;;;5060060;28;20060;-82
2021/03/04 01:52:54;;;;;;;4.80;3.45;;;22.00;44.60;;;;;;5053850;28;20028;-82
2021/03/04 01:55:20;;;;;;;4.63;3.22;;;22.00;44.60;;;;;;5059525;28;20028;-82
2021/03/04 01:57:47;;;;;;;4.25;3.80;;;22.00;44.70;;;;;;5049462;28;20036;-82
2021/03/04 02:00:15;;;;;;;5.05;3.90;;;21.90;44.70;;;;;;5057014;28;20106;-82
2021/03/04 02:02:41;;;;;;;3.50;3.20;;;22.00;44.70;;;;;;5039275;28;20493;-82
2021/03/04 02:05:09;;;;;;;5.00;4.15;;;22.00;44.60;;;;;;5057910;28;20040;-83
2021/03/04 02:07:58;;;;;;;3.78;3.47;;;22.00;44.60;;;;;;5059945;28;20398;-81
2021/03/04 02:10:44;;;;;;;4.38;3.47;;;22.00;45.20;;;;;;5058312;28;20029;-82
2021/03/04 02:13:27;;;;;;;3.70;3.40;;;22.00;44.70;;;;;;5057455;28;20033;-82
2021/03/04 02:16:00;;;;;;;3.08;2.72;;;21.90;44.70;;;;;;5055504;28;20031;-81
2021/03/04 02:18:29;;;;;;;3.50;3.17;;;22.00;44.70;;;;;;5059414;28;20029;-82
2021/03/04 02:21:11;;;;;;;3.60;3.30;;;21.90;44.60;;;;;;5060594;28;20109;-82
2021/03/04 02:24:05;;;;;;;3.38;3.08;;;21.90;44.70;;;;;;5043361;28;20048;-81
2021/03/04 02:26:43;;;;;;;4.88;3.60;;;21.90;44.70;;;;;;5043795;28;20017;-81
2021/03/04 02:29:13;;;;;;;4.85;3.92;;;21.90;44.70;;;;;;5062814;28;20041;-81
2021/03/04 02:31:43;;;;;;;4.25;3.38;;;21.90;44.60;;;;;;5041216;28;20116;-81
2021/03/04 02:34:10;;;;;;;3.95;3.50;;;21.90;44.60;;;;;;5047289;28;20025;-81
2021/03/04 02:36:38;;;;;;;3.80;3.33;;;21.90;44.60;;;;;;5046252;28;20041;-81
2021/03/04 02:39:06;;;;;;;3.60;3.30;;;21.90;44.60;;;;;;5058168;28;20037;-82
2021/03/04 02:41:35;;;;;;;3.75;3.40;;;21.90;44.60;;;;;;5062801;28;20028;-81
2021/03/04 02:44:04;;;;;;;3.33;3.03;;;21.90;44.60;;;;;;5061069;28;20068;-81
2021/03/04 02:46:32;;;;;;;3.22;2.92;;;21.80;44.50;;;;;;5058700;28;20055;-82
2021/03/04 02:48:59;;;;;;;3.67;3.38;;;21.80;44.50;;;;;;5042946;28;20021;-82
2021/03/04 02:51:26;;;;;;;4.75;3.17;;;21.90;44.60;;;;;;5061127;28;20090;-81
2021/03/04 02:53:52;;;;;;;4.13;3.72;;;21.80;44.60;;;;;;5059977;28;20021;-81
2021/03/04 02:56:20;;;;;;;5.30;3.53;;;21.80;44.60;;;;;;5058512;28;20465;-80
2021/03/04 02:58:47;;;;;;;3.22;2.92;;;21.80;44.60;;;;;;5049941;28;20033;-81
2021/03/04 03:01:14;;;;;;;3.47;3.17;;;21.80;44.60;;;;;;5054325;28;20060;-81
2021/03/04 03:03:41;;;;;;;3.28;2.97;;;21.80;44.50;;;;;;5057953;28;20515;-81
2021/03/04 03:06:08;;;;;;;4.43;3.05;;;21.80;44.60;;;;;;5052273;28;20033;-81
2021/03/04 03:08:35;;;;;;;3.38;2.92;;;21.80;44.60;;;;;;5059742;28;20104;-81
2021/03/04 03:11:02;;;;;;;4.93;3.50;;;21.80;44.50;;;;;;5053449;28;20024;-81
2021/03/04 03:13:29;;;;;;;3.38;3.17;;;21.80;44.50;;;;;;5052652;28;20047;-81
2021/03/04 03:15:55;;;;;;;3.90;3.05;;;21.80;44.50;;;;;;5063102;28;20021;-80
2021/03/04 03:18:21;;;;;;;3.80;3.22;;;21.70;44.50;;;;;;5067725;28;20024;-80
2021/03/04 03:20:46;;;;;;;4.45;3.30;;;21.70;44.50;;;;;;5039605;28;20022;-80
2021/03/04 03:23:12;;;;;;;3.72;3.38;;;21.70;44.50;;;;;;5041274;28;21170;-80
2021/03/04 03:25:38;;;;;;;4.90;3.25;;;21.70;44.40;;;;;;5061723;28;20424;-80
2021/03/04 03:28:04;;;;;;;4.85;3.53;;;21.70;44.50;;;;;;5054841;28;20453;-80
2021/03/04 03:30:30;;;;;;;3.58;3.28;;;21.70;44.50;;;;;;5056630;28;20051;-80
2021/03/04 03:33:01;;;;;;;3.22;2.92;;;21.70;44.90;;;;;;5068780;28;20117;-81
2021/03/04 03:35:29;;;;;;;3.38;2.92;;;21.70;44.40;;;;;;5051649;28;20103;-81
2021/03/04 03:37:56;;;;;;;3.47;3.17;;;21.60;44.40;;;;;;5062057;28;20028;-81
2021/03/04 03:40:24;;;;;;;4.18;3.60;;;21.70;44.40;;;;;;5059200;28;20028;-80
2021/03/04 03:42:51;;;;;;;3.22;2.92;;;21.70;44.50;;;;;;5048183;28;20083;-81
2021/03/04 03:45:20;;;;;;;4.20;3.65;;;21.70;44.50;;;;;;5057437;28;20781;-81
2021/03/04 03:47:47;;;;;;;4.10;3.42;;;21.70;44.50;;;;;;5054260;28;20031;-80
2021/03/04 03:50:15;;;;;;;3.63;3.33;;;21.70;44.50;;;;;;5060958;28;20033;-81
2021/03/04 03:52:41;;;;;;;3.95;2.72;;;21.60;44.40;;;;;;5050935;28;20023;-81
2021/03/04 03:55:08;;;;;;;3.97;3.67;;;21.70;44.40;;;;;;5060660;28;20115;-81
2021/03/04 03:57:35;;;;;;;3.50;3.20;;;21.60;44.40;;;;;;5055579;28;20024;-81
2021/03/04 04:00:03;;;;;;;4.28;3.88;;;21.60;44.40;;;;;;5057111;28;20067;-82
2021/03/04 04:02:29;;;;;;;5.15;3.55;;;21.60;44.90;;;;;;5045126;28;20558;-82
2021/03/04 04:04:55;;;;;;;5.30;3.55;;;21.60;44.30;;;;;;5034073;28;20033;-82
2021/03/04 04:07:21;;;;;;;4.40;4.00;;;21.60;44.40;;;;;;5066809;28;20016;-82
2021/03/04 04:09:48;;;;;;;4.10;3.60;;;21.60;44.40;;;;;;5061062;28;20036;-82
2021/03/04 04:12:14;;;;;;;4.15;3.78;;;21.60;44.40;;;;;;5060673;28;20025;-82
2021/03/04 04:14:40;;;;;;;3.28;3.03;;;21.60;44.40;;;;;;5066133;28;20074;-82
2021/03/04 04:17:06;;;;;;;4.95;3.30;;;21.60;44.40;;;;;;5056105;28;20047;-81
2021/03/04 04:19:34;;;;;;;4.40;4.00;;;21.60;44.40;;;;;;5061154;28;20617;-81
2021/03/04 04:22:00;;;;;;;3.90;3.50;;;21.50;44.40;;;;;;5062685;28;20476;-81
2021/03/04 04:24:25;;;;;;;4.05;3.63;;;21.50;44.30;;;;;;5056734;28;20033;-82
2021/03/04 04:26:51;;;;;;;4.10;3.70;;;21.60;44.30;;;;;;5046848;28;20054;-82
2021/03/04 04:29:17;;;;;;;4.97;3.90;;;21.50;44.30;;;;;;5062192;28;20035;-82
2021/03/04 04:31:42;;;;;;;4.63;3.60;;;21.50;44.30;;;;;;5056995;28;20111;-81
2021/03/04 04:34:08;;;;;;;3.90;3.50;;;21.60;44.30;;;;;;5061274;28;20032;-81
2021/03/04 04:36:33;;;;;;;4.70;3.60;;;21.50;44.20;;;;;;5061398;28;20062;-81
2021/03/04 04:38:59;;;;;;;3.83;3.38;;;21.50;44.30;;;;;;5063460;28;20029;-81
2021/03/04 04:41:25;;;;;;;4.05;3.50;;;21.50;44.30;;;;;;5057812;28;20036;-80
2021/03/04 04:43:50;;;;;;;4.05;3.75;;;21.50;44.20;;;;;;5044878;28;20036;-81
2021/03/04 04:46:16;;;;;;;4.45;3.63;;;21.50;44.30;;;;;;5062593;28;20173;-81
2021/03/04 04:48:43;;;;;;;5.80;3.88;;;21.50;44.30;;;;;;5055616;28;20041;-81
2021/03/04 04:51:10;;;;;;;4.43;3.92;;;21.50;44.30;;;;;;5062912;28;20024;-81
2021/03/04 04:53:35;;;;;;;3.80;3.50;;;21.50;44.30;;;;;;5059113;28;20562;-81
2021/03/04 04:56:01;;;;;;;3.63;3.15;;;21.50;44.30;;;;;;5060376;28;20108;-81
2021/03/04 04:58:27;;;;;;;4.35;3.15;;;21.50;44.30;;;;;;5043658;28;20032;-80
2021/03/04 05:00:52;;;;;;;4.00;3.58;;;21.40;44.20;;;;;;5065703;28;20021;-81
2021/03/04 05:03:18;;;;;;;3.45;3.15;;;21.40;44.20;;;;;;5055905;28;20167;-81
2021/03/04 05:05:43;;;;;;;3.58;3.08;;;21.50;44.30;;;;;;5067672;28;20029;-81
2021/03/04 05:08:09;;;;;;;3.88;3.58;;;21.50;44.20;;;;;;5060581;28;20040;-81
2021/03/04 05:10:34;;;;;;;4.90;3.58;;;21.40;44.20;;;;;;5069300;28;20025;-81
2021/03/04 05:13:00;;;;;;;4.47;3.45;;;21.40;44.20;;;;;;5057353;28;20027;-81
2021/03/04 05:15:26;;;;;;;4.85;3.42;;;21.40;44.20;;;;;;5058515;28;20922;-81
2021/03/04 05:17:51;;;;;;;3.88;3.58;;;21.40;44.20;;;;;;5061627;28;20020;-82
2021/03/04 05:20:17;;;;;;;3.97;3.55;;;21.40;44.20;;;;;;5065751;28;20035;-82
2021/03/04 05:22:43;;;;;;;4.40;4.00;;;21.40;44.10;;;;;;5066020;28;20082;-82
2021/03/04 05:25:09;;;;;;;4.28;3.88;;;21.40;44.20;;;;;;5065324;28;20021;-82
2021/03/04 05:27:34;;;;;;;4.22;3.83;;;21.40;44.20;;;;;;5062123;28;20056;-81
2021/03/04 05:30:00;;;;;;;4.97;3.33;;;21.40;44.20;;;;;;5061103;28;20028;-82
2021/03/04 05:32:26;;;;;;;4.90;4.00;;;21.40;44.20;;;;;;5060839;28;20052;-82
2021/03/04 05:34:51;;;;;;;3.60;2.97;;;21.40;44.20;;;;;;5061701;28;20036;-81
2021/03/04 05:37:17;;;;;;;4.72;3.92;;;21.40;44.20;;;;;;5040345;28;20037;-81
2021/03/04 05:39:42;;;;;;;4.78;4.07;;;21.40;44.20;;;;;;5070382;28;20012;-81
2021/03/04 05:42:09;;;;;;;4.28;3.65;;;21.40;44.20;;;;;;5067446;28;20029;-82
2021/03/04 05:44:35;;;;;;;5.38;4.43;;;21.30;44.20;;;;;;5062019;28;20029;-82
2021/03/04 05:47:04;;;;;;;4.15;3.72;;;21.40;44.20;;;;;;5038845;28;20027;-82
2021/03/04 05:49:31;;;;;;;4.25;3.85;;;21.40;44.30;;;;;;5059331;28;20024;-81
2021/03/04 05:51:59;;;;;;;4.55;4.15;;;21.40;44.20;;;;;;5057121;28;20023;-82
2021/03/04 05:54:28;;;;;;;4.82;3.67;;;21.40;44.20;;;;;;5061408;28;20021;-81
2021/03/04 05:56:57;;;;;;;4.28;3.85;;;21.40;44.20;;;;;;5063775;28;20044;-81
2021/03/04 05:59:24;;;;;;;6.05;4.13;;;21.40;44.20;;;;;;5055374;28;20026;-81
2021/03/04 06:01:50;;;;;;;3.92;3.47;;;21.30;44.10;;;;;;5055755;28;20447;-81
2021/03/04 06:04:16;;;;;;;5.00;4.13;;;21.30;44.20;;;;;;5057989;28;20090;-81
2021/03/04 06:06:42;;;;;;;5.82;4.32;;;21.40;44.30;;;;;;5060470;28;20029;-81
2021/03/04 06:09:07;;;;;;;4.95;4.10;;;21.30;44.10;;;;;;5058717;28;20050;-81
2021/03/04 06:11:36;;;;;;;5.43;4.10;;;21.30;44.20;;;;;;5064174;28;20028;-81
2021/03/04 06:14:02;;;;;;;4.80;3.90;;;21.30;44.20;;;;;;5064323;28;20029;-82
2021/03/04 06:16:28;;;;;;;4.50;4.10;;;21.30;44.20;;;;;;5063147;28;20035;-81
2021/03/04 06:18:54;;;;;;;4.45;4.05;;;21.30;44.10;;;;;;5066590;28;20116;-81
2021/03/04 06:21:24;;;;;;;4.10;3.63;;;21.30;44.10;;;;;;5061609;28;20056;-81
2021/03/04 06:23:50;;;;;;;4.78;4.25;;;21.30;44.20;;;;;;5064119;28;20045;-81
2021/03/04 06:26:28;;;;;;;4.45;4.05;;;21.30;44.10;;;;;;5055656;28;20049;-81
2021/03/04 06:28:54;;;;;;;4.78;4.10;;;21.30;44.20;;;;;;5063029;28;20044;-80
2021/03/04 06:31:20;;;;;;;5.30;4.30;;;21.30;44.10;;;;;;5057239;28;20029;-81
2021/03/04 06:33:46;;;;;;;4.63;4.03;;;21.30;44.20;;;;;;5065122;28;20025;-81
2021/03/04 06:36:17;;;;;;;4.75;4.28;;;21.30;44.10;;;;;;5065788;28;20026;-81
2021/03/04 06:38:56;;;;;;;5.20;4.70;;;21.30;44.10;;;;;;5062275;28;20025;-81
2021/03/04 06:41:22;;;;;;;4.50;4.10;;;21.30;44.10;;;;;;5059249;28;20024;-81
2021/03/04 06:43:59;;;;;;;4.82;4.10;;;21.30;44.20;;;;;;5065571;28;20415;-81
2021/03/04 06:46:25;;;;;;;5.32;4.22;;;21.20;44.10;;;;;;5060244;28;20033;-81
2021/03/04 06:48:53;;;;;;;4.30;3.63;;;21.30;44.10;;;;;;5065181;28;20139;-81
2021/03/04 06:51:19;;;;;;;3.65;3.35;;;21.30;44.10;;;;;;5065518;28;20068;-81
2021/03/04 06:53:53;;;;;;;4.80;4.20;;;21.40;44.00;;;;;;5063822;28;20055;-81
2021/03/04 06:56:30;;;;;;;4.30;3.70;;;21.50;44.00;;;;;;5057256;28;20051;-81
2021/03/04 06:59:02;;;;;;;4.15;3.30;;;21.60;43.60;;;;;;5047955;28;20170;-81
2021/03/04 07:01:29;;;;;;;3.83;3.40;;;21.80;43.50;;;;;;5068424;28;20043;-81
2021/03/04 07:03:55;;;;;;;4.00;3.47;;;21.90;43.80;;;;;;5069941;28;20025;-81
2021/03/04 07:06:25;;;;;;;3.80;3.17;;;22.00;43.10;;;;;;5058997;28;20029;-81
2021/03/04 07:08:52;;;;;;;5.63;3.90;;;22.10;43.10;;;;;;5064683;28;20021;-82
2021/03/04 07:11:23;;;;;;;4.13;3.47;;;22.20;43.00;;;;;;5058057;28;20021;-81
2021/03/04 07:13:50;;;;;;;3.85;3.50;;;22.20;42.90;;;;;;5059257;28;20376;-83
2021/03/04 07:16:22;;;;;;;4.88;3.88;;;22.20;42.90;;;;;;5065661;28;20021;-83
2021/03/04 07:18:55;;;;;;;4.82;3.47;;;22.30;42.50;;;;;;5044594;28;20032;-84
2021/03/04 07:21:26;;;;;;;4.45;3.22;;;22.30;42.90;;;;;;5059388;28;20036;-84
2021/03/04 07:23:52;;;;;;;3.65;3.35;;;22.30;42.90;;;;;;5061812;28;20035;-82
2021/03/04 07:26:18;;;;;;;4.43;3.10;;;22.30;42.90;;;;;;5063015;28;20025;-83
2021/03/04 07:28:46;;;;;;;4.25;3.40;;;22.30;42.90;;;;;;5049698;28;20021;-83
2021/03/04 07:31:13;;;;;;;4.63;3.67;;;22.20;42.90;;;;;;5062552;28;20028;-83
2021/03/04 07:33:43;;;;;;;5.72;3.95;;;22.30;43.00;;;;;;5059739;28;20028;-83
2021/03/04 07:36:11;;;;;;;5.23;4.13;;;22.20;43.00;;;;;;5065684;28;20025;-83
2021/03/04 07:38:37;;;;;;;5.95;4.80;;;22.20;43.00;;;;;;5066547;28;20111;-82
2021/03/04 07:41:06;;;;;;;6.97;5.18;;;22.20;43.10;;;;;;5063145;28;20072;-82
2021/03/04 07:43:50;;;;;;;5.18;4.55;;;22.20;43.10;;;;;;5066211;28;20028;-82
2021/03/04 07:46:36;;;;;;;4.32;3.70;;;22.20;43.10;;;;;;5064563;28;20068;-81
2021/03/04 07:49:07;;;;;;;6.22;4.78;;;22.20;43.20;;;;;;5062472;28;20362;-80
2021/03/04 07:51:44;;;;;;;7.10;4.32;;;22.20;43.20;;;;;;5063682;28;20025;-81
2021/03/04 07:54:10;;;;;;;5.25;4.47;;;22.20;43.20;;;;;;5063978;28;20210;-81
2021/03/04 07:56:35;;;;;;;5.60;4.38;;;22.10;43.20;;;;;;5065574;28;20033;-82
2021/03/04 07:59:08;;;;;;;5.30;3.90;;;22.10;43.20;;;;;;5064965;28;20055;-81
2021/03/04 08:01:34;;;;;;;5.53;4.18;;;22.10;43.30;;;;;;5057069;28;20040;-81
2021/03/04 08:04:01;;;;;;;4.32;3.92;;;22.10;43.30;;;;;;5061329;28;20056;-85
2021/03/04 08:06:27;;;;;;;5.20;3.63;;;22.10;43.30;;;;;;5045458;28;20737;-84
2021/03/04 08:08:52;;;;;;;4.22;3.28;;;22.20;43.20;;;;;;5048095;28;20037;-83
2021/03/04 08:11:29;;;;;;;5.40;3.85;;;22.20;43.20;;;;;;5062887;28;20025;-83
2021/03/04 08:13:55;;;;;;;4.45;4.05;;;22.10;43.40;;;;;;5063129;28;20475;-83
2021/03/04 08:16:21;;;;;;;4.50;3.72;;;22.00;43.50;;;;;;5064932;28;20297;-84
2021/03/04 08:18:59;;;;;;;5.82;5.03;;;22.00;43.50;;;;;;5065842;28;20032;-84
2021/03/04 08:21:26;;;;;;;8.60;4.82;;;22.00;43.60;;;;;;5058445;28;20021;-84
2021/03/04 08:23:52;;;;;;;6.85;4.47;;;22.00;43.60;;;;;;5060997;28;20099;-84
2021/03/04 08:26:26;;;;;;;8.13;4.60;;;22.00;43.70;;;;;;5068268;28;20035;-83
2021/03/04 08:29:12;;;;;;;5.25;4.05;;;22.00;43.70;;;;;;5042008;28;20039;-84
2021/03/04 08:31:45;;;;;;;6.07;3.90;;;21.90;43.70;;;;;;5058275;28;20074;-83
2021/03/04 08:34:11;;;;;;;8.23;4.97;;;22.00;43.70;;;;;;5061425;28;20032;-83
2021/03/04 08:36:42;;;;;;;6.43;4.57;;;22.10;43.60;;;;;;5043559;28;20037;-84
2021/03/04 08:39:08;;;;;;;8.73;5.05;;;22.20;43.50;;;;;;5061113;28;20108;-82
2021/03/04 08:41:34;;;;;;;8.35;4.60;;;22.20;43.40;;;;;;5058170;28;20116;-83
2021/03/04 08:44:14;;;;;;;4.90;4.32;;;22.20;43.60;;;;;;5044217;28;20508;-85
2021/03/04 08:46:41;;;;;;;5.88;4.25;;;22.20;43.70;;;;;;5057981;28;20276;-85
2021/03/04 08:49:06;;;;;;;5.60;4.32;;;22.20;43.60;;;;;;5059773;28;20025;-85
2021/03/04 08:51:42;;;;;;;6.38;4.78;;;22.20;43.60;;;;;;5060312;28;20020;-82
2021/03/04 08:54:21;;;;;;;7.00;4.78;;;22.30;43.80;;;;;;5056402;28;20103;-86
2021/03/04 08:57:05;;;;;;;5.30;4.40;;;22.30;43.80;;;;;;5059984;28;20056;-83
2021/03/04 08:59:32;;;;;;;7.95;5.75;;;22.30;43.80;;;;;;5058905;28;20041;-85
2021/03/04 09:01:59;;;;;;;6.07;5.03;;;22.20;43.80;;;;;;5062528;28;20041;-86
2021/03/04 09:04:26;;;;;;;7.13;4.60;;;22.20;43.90;;;;;;5057958;28;21246;-86
2021/03/04 09:06:53;;;;;;;6.10;5.05;;;22.30;43.80;;;;;;5059255;28;20293;-84
2021/03/04 09:09:27;;;;;;;10.05;5.10;;;22.20;43.90;;;;;;5057402;28;20052;-85
2021/03/04 09:11:54;;;;;;;5.03;3.85;;;22.10;44.00;;;;;;5058291;28;20029;-88
2021/03/04 09:14:32;;;;;;;5.30;4.40;;;22.20;44.00;;;;;;5040069;28;20572;-86
2021/03/04 09:16:59;;;;;;;5.47;4.75;;;22.10;44.10;;;;;;5060805;28;20040;-83
2021/03/04 09:19:29;;;;;;;5.97;4.50;;;22.10;44.10;;;;;;5053003;28;20036;-82
2021/03/04 09:22:03;;;;;;;6.20;4.22;;;22.00;44.20;;;;;;5058532;28;20035;-83
2021/03/04 09:24:29;;;;;;;6.40;4.40;;;22.00;44.30;;;;;;5059092;28;20029;-84
2021/03/04 09:26:55;;;;;;;6.57;4.40;;;22.10;44.20;;;;;;5060746;28;20029;-86
2021/03/04 09:29:21;;;;;;;5.35;4.20;;;22.20;44.10;;;;;;5044201;28;20036;-85
2021/03/04 09:31:52;;;;;;;8.18;4.10;;;22.20;44.10;;;;;;5039945;28;20029;-84
2021/03/04 09:34:19;;;;;;;4.47;4.07;;;22.10;44.00;;;;;;5062530;28;20055;-85
2021/03/04 09:36:44;;;;;;;6.25;4.85;;;22.20;44.00;;;;;;5057179;28;20043;-85
2021/03/04 09:39:10;;;;;;;5.60;4.00;;;22.20;44.00;;;;;;5060858;28;20412;-82
2021/03/04 09:41:36;;;;;;;4.40;3.88;;;22.20;44.00;;;;;;5059158;28;20223;-83
2021/03/04 09:44:03;;;;;;;7.00;3.92;;;22.10;44.10;;;;;;5039915;28;20073;-85
2021/03/04 09:46:32;;;;;;;5.55;4.10;;;22.00;44.30;;;;;;5055687;28;20033;-83
2021/03/04 09:49:15;;;;;;;5.22;4.18;;;22.20;44.20;;;;;;5059484;28;20037;-84
2021/03/04 09:51:45;;;;;;;6.40;3.70;;;22.30;43.80;;;;;;5041758;28;20017;-84
2021/03/04 09:54:11;;;;;;;5.03;4.32;;;22.20;43.80;;;;;;5055793;28;20416;-84
2021/03/04 09:56:36;;;;;;;8.60;4.65;;;22.10;44.00;;;;;;5056632;28;20030;-83
2021/03/04 09:59:02;;;;;;;5.00;4.22;;;22.10;44.20;;;;;;5057504;28;20075;-79
2021/03/04 10:01:30;;;;;;;5.43;4.03;;;22.10;44.30;;;;;;5045122;28;20044;-81
2021/03/04 10:04:04;;;;;;;6.88;4.45;;;22.10;44.20;;;;;;5060378;28;20052;-83
2021/03/04 10:06:38;;;;;;;4.80;4.13;;;22.10;44.30;;;;;;5054462;28;20562;-81
2021/03/04 10:09:05;;;;;;;5.75;4.53;;;22.10;44.30;;;;;;5058251;28;20059;-83
2021/03/04 10:11:32;;;;;;;5.70;3.80;;;22.10;44.30;;;;;;5055436;28;20032;-81
2021/03/04 10:14:12;;;;;;;4.72;4.20;;;22.00;40.90;;;;;;5049923;28;20033;-83
2021/03/04 10:16:39;;;;;;;5.95;3.83;;;22.00;40.80;;;;;;5058553;28;20400;-82
2021/03/04 10:19:06;;;;;;;5.72;3.63;;;22.00;40.80;;;;;;5053887;28;20033;-82
2021/03/04 10:21:33;;;;;;;6.20;4.10;;;22.00;40.70;;;;;;5056748;28;20104;-84
2021/03/04 10:23:59;;;;;;;7.50;4.13;;;22.00;40.60;;;;;;5055902;28;20040;-85
2021/03/04 10:26:24;;;;;;;4.88;3.85;;;22.00;40.60;;;;;;5058822;28;20021;-84
2021/03/04 10:28:50;;;;;;;4.68;4.00;;;22.00;40.60;;;;;;5056077;28;20131;-83
2021/03/04 10:31:16;;;;;;;4.75;3.75;;;22.00;40.70;;;;;;5054185;28;20074;-83
2021/03/04 10:33:42;;;;;;;4.13;3.72;;;22.10;40.50;;;;;;5055128;28;20048;-85
2021/03/04 10:36:08;;;;;;;5.60;3.30;;;22.10;40.40;;;;;;5053034;28;20109;-82
2021/03/04 10:38:33;;;;;;;3.50;3.20;;;22.10;40.40;;;;;;5058653;28;20036;-84
2021/03/04 10:40:59;;;;;;;7.03;3.33;;;22.00;40.40;;;;;;5055416;28;20028;-83
2021/03/04 10:43:24;;;;;;;3.85;3.50;;;22.00;40.60;;;;;;5052806;28;20071;-83
2021/03/04 10:45:50;;;;;;;4.60;3.53;;;22.00;40.60;;;;;;5053903;28;20115;-84
2021/03/04 10:48:16;;;;;;;3.50;3.20;;;22.00;40.60;;;;;;5056938;28;20021;-83
2021/03/04 10:50:42;;;;;;;4.65;3.20;;;22.00;40.80;;;;;;5059398;28;20022;-83
2021/03/04 10:53:07;;;;;;;3.78;3.25;;;22.00;41.00;;;;;;5032316;28;20124;-83
2021/03/04 10:55:33;;;;;;;3.50;3.20;;;22.00;40.80;;;;;;5054268;28;20138;-82
2021/03/04 10:57:59;;;;;;;4.68;2.78;;;21.90;40.90;;;;;;5045482;28;20037;-83
2021/03/04 11:00:24;;;;;;;4.53;3.58;;;21.90;40.90;;;;;;5062516;28;20033;-83
2021/03/04 11:02:50;;;;;;;4.97;3.42;;;22.00;40.70;;;;;;5056137;28;20083;-84
2021/03/04 11:05:16;;;;;;;4.82;3.85;;;22.00;41.40;;;;;;5066583;28;20024;-83
2021/03/04 11:07:41;;;;;;;5.07;3.63;;;21.90;41.00;;;;;;5063608;28;20035;-86
2021/03/04 11:10:09;;;;;;;4.70;4.22;;;21.90;41.00;;;;;;5059008;28;20040;-84
2021/03/04 11:12:35;;;;;;;4.38;2.45;;;21.90;41.00;;;;;;5059640;28;20029;-82
2021/03/04 11:15:01;;;;;;;4.90;3.03;;;22.00;41.10;;;;;;5062049;28;20048;-83
2021/03/04 11:17:27;;;;;;;3.25;2.33;;;22.00;41.00;;;;;;5060520;28;20032;-82
2021/03/04 11:19:52;;;;;;;3.47;2.80;;;22.10;40.90;;;;;;5059788;28;20055;-84
2021/03/04 11:22:18;;;;;;;2.63;1.83;;;22.20;40.70;;;;;;5056045;28;20041;-82
2021/03/04 11:24:48;;;;;;;3.35;2.50;;;22.30;40.90;;;;;;5057655;28;20032;-83
2021/03/04 11:27:17;;;;;;;2.00;1.80;;;22.50;40.50;;;;;;5061753;28;20079;-84
2021/03/04 11:29:47;;;;;;;4.13;2.42;;;22.50;40.40;;;;;;5060768;28;20085;-84
2021/03/04 11:32:13;;;;;;;2.63;2.30;;;22.60;40.30;;;;;;5059374;28;20029;-88
2021/03/04 11:34:39;;;;;;;2.35;1.60;;;22.70;48.20;;;;;;5061442;28;20041;-86
2021/03/04 11:37:04;;;;;;;3.50;1.92;;;22.90;40.60;;;;;;5055120;28;20530;-85
2021/03/04 11:39:30;;;;;;;3.13;2.70;;;23.00;40.40;;;;;;5064563;28;20037;-85
2021/03/04 11:41:55;;;;;;;2.40;1.70;;;23.00;40.10;;;;;;5057364;28;20028;-83
2021/03/04 11:44:21;;;;;;;1.70;1.60;;;23.00;40.20;;;;;;5057141;28;20040;-85
2021/03/04 11:46:47;;;;;;;2.30;1.83;;;23.00;40.20;;;;;;5068566;28;20127;-82
2021/03/04 11:49:12;;;;;;;1.67;1.58;;;23.10;40.20;;;;;;5067694;28;20115;-83
2021/03/04 11:51:38;;;;;;;3.13;1.48;;;23.00;40.20;;;;;;5058648;28;20030;-83
2021/03/04 11:54:04;;;;;;;3.17;2.03;;;23.10;40.10;;;;;;5062303;28;20033;-81
2021/03/04 11:56:32;;;;;;;2.20;1.75;;;23.20;40.30;;;;;;5058040;28;20500;-84
2021/03/04 11:59:14;;;;;;;2.45;1.95;;;23.20;40.30;;;;;;5062718;28;20048;-84
2021/03/04 12:01:51;;;;;;;2.00;1.40;;;23.30;40.30;;;;;;5059314;28;20090;-84
2021/03/04 12:04:17;;;;;;;2.25;1.40;;;23.30;40.20;;;;;;5037998;28;20032;-81
2021/03/04 12:06:42;;;;;;;2.13;1.50;;;23.40;40.40;;;;;;5060055;28;20051;-84
2021/03/04 12:09:08;;;;;;;1.80;1.23;;;23.40;40.30;;;;;;5060904;28;20491;-81
2021/03/04 12:11:34;;;;;;;3.58;1.65;;;23.40;40.20;;;;;;5059354;28;20025;-82
2021/03/04 12:13:59;;;;;;;1.70;1.20;;;23.40;40.20;;;;;;5059433;28;20108;-82
2021/03/04 12:16:25;;;;;;;1.80;1.20;;;23.40;40.20;;;;;;5058759;28;20470;-82
2021/03/04 12:18:51;;;;;;;2.67;1.40;;;23.40;40.20;;;;;;5062435;28;20109;-83
2021/03/04 12:21:17;;;;;;;1.70;1.17;;;23.30;40.10;;;;;;5062766;28;20057;-85
2021/03/04 12:23:43;;;;;;;1.88;1.25;;;23.30;40.20;;;;;;5059535;28;20025;-82
2021/03/04 12:26:09;;;;;;;1.80;1.17;;;23.30;40.40;;;;;;5062715;28;20037;-81
2021/03/04 12:28:34;;;;;;;2.10;1.40;;;23.30;40.50;;;;;;5059892;28;20029;-84
2021/03/04 12:31:00;;;;;;;1.85;1.15;;;23.30;40.50;;;;;;5043002;28;20028;-83
2021/03/04 12:33:26;;;;;;;1.58;1.27;;;23.20;40.60;;;;;;5061830;28;20052;-83
2021/03/04 12:35:51;;;;;;;4.30;1.15;;;23.10;40.50;;;;;;5060134;28;20096;-82
2021/03/04 12:38:17;;;;;;;2.63;1.52;;;23.10;40.50;;;;;;5054684;28;20523;-82
2021/03/04 12:40:42;;;;;;;2.28;1.13;;;23.10;40.50;;;;;;5040507;28;20029;-81
2021/03/04 12:43:08;;;;;;;2.22;1.33;;;23.10;40.50;;;;;;5058418;28;20056;-83
2021/03/04 12:45:34;;;;;;;2.47;1.45;;;23.10;40.70;;;;;;5045559;28;20036;-82
2021/03/04 12:48:01;;;;;;;3.20;1.45;;;23.10;40.70;;;;;;5046342;28;20591;-83
2021/03/04 12:50:27;;;;;;;4.45;1.95;;;23.10;40.80;;;;;;5038729;28;20033;-83